Time;durP1;ratioP1;P1;durP2;ratioP2;P2;SDS_P1;SDS_P2;PMS_P1;PMS_P2;Temp;Humidity;BMP_temperature;BMP_pressure;BME280_temperature;BME280_humidity;BME280_pressure;Samples;Min_cycle;Max_cycle;Signal;HPM_P1;HPM_P2
2022/10/22 00:02:06;;;;;;;14.32;8.45;;;12.30;99.90;;;;;;5120446;27;20055;-62
2022/10/22 00:04:33;;;;;;;16.08;8.60;;;12.20;99.90;;;;;;5117180;27;20435;-62
2022/10/22 00:07:00;;;;;;;15.63;8.48;;;12.20;99.90;;;;;;5134372;27;20096;-62
2022/10/22 00:09:27;;;;;;;14.50;9.25;;;12.20;99.90;;;;;;5116025;27;20051;-63
2022/10/22 00:11:55;;;;;;;16.20;8.98;;;12.20;99.90;;;;;;5134997;27;20062;-62
2022/10/22 00:14:22;;;;;;;20.77;9.00;;;12.10;99.90;;;;;;5134280;27;20152;-62
2022/10/22 00:16:49;;;;;;;14.30;8.85;;;12.10;99.90;;;;;;5134981;27;20047;-62
2022/10/22 00:19:16;;;;;;;19.58;9.50;;;12.10;99.90;;;;;;5132361;27;20107;-62
2022/10/22 00:21:43;;;;;;;14.30;8.38;;;12.00;99.90;;;;;;5113703;28;20100;-62
2022/10/22 00:24:10;;;;;;;16.10;8.68;;;12.00;99.90;;;;;;5113214;28;20491;-62
2022/10/22 00:26:38;;;;;;;15.98;8.55;;;12.00;99.90;;;;;;5112885;28;20059;-62
2022/10/22 00:29:06;;;;;;;16.17;8.98;;;12.00;99.90;;;;;;5113624;28;20047;-62
2022/10/22 00:31:33;;;;;;;13.20;8.02;;;12.00;99.90;;;;;;5112893;28;20055;-62
2022/10/22 00:34:01;;;;;;;11.18;8.13;;;12.00;99.90;;;;;;5113225;28;20054;-62
2022/10/22 00:36:28;;;;;;;14.77;8.60;;;12.00;99.90;;;;;;5112849;28;20052;-63
2022/10/22 00:38:55;;;;;;;22.27;10.10;;;12.00;99.90;;;;;;5113909;28;20047;-62
2022/10/22 00:41:22;;;;;;;13.02;8.40;;;11.90;99.90;;;;;;5113214;28;20449;-63
2022/10/22 00:43:57;;;;;;;17.05;9.00;;;11.90;99.90;;;;;;5113785;28;20399;-62
2022/10/22 00:46:25;;;;;;;14.27;8.95;;;11.90;99.90;;;;;;5112943;28;20112;-62
2022/10/22 00:48:54;;;;;;;14.13;8.27;;;11.80;99.90;;;;;;5127671;27;20055;-62
2022/10/22 00:51:24;;;;;;;17.25;9.20;;;11.80;99.90;;;;;;5133936;27;20083;-62
2022/10/22 00:53:54;;;;;;;17.52;9.07;;;11.80;99.90;;;;;;5116030;27;20051;-63
2022/10/22 00:56:22;;;;;;;14.18;8.88;;;11.80;99.90;;;;;;5115250;27;20195;-62
2022/10/22 00:58:53;;;;;;;14.00;8.80;;;11.70;99.90;;;;;;5114776;27;20062;-62
2022/10/22 01:01:24;;;;;;;18.25;9.98;;;11.70;99.90;;;;;;5125196;27;20052;-62
2022/10/22 01:03:53;;;;;;;16.10;9.45;;;11.70;99.90;;;;;;5111880;28;20048;-62
2022/10/22 01:06:26;;;;;;;12.38;8.63;;;11.70;99.90;;;;;;5113686;28;20052;-62
2022/10/22 01:09:02;;;;;;;17.90;9.40;;;11.70;99.90;;;;;;5112122;28;20085;-62
2022/10/22 01:11:38;;;;;;;20.00;10.85;;;11.80;99.90;;;;;;5112138;28;20058;-61
2022/10/22 01:14:14;;;;;;;13.48;9.20;;;11.80;99.90;;;;;;5112431;28;20487;-62
2022/10/22 01:16:49;;;;;;;18.63;8.80;;;11.80;99.90;;;;;;5114060;28;20112;-62
2022/10/22 01:19:39;;;;;;;15.13;8.65;;;11.80;99.90;;;;;;5115166;28;20491;-62
2022/10/22 01:22:14;;;;;;;17.02;9.00;;;11.80;99.90;;;;;;5115304;28;20051;-61
2022/10/22 01:24:53;;;;;;;16.17;9.45;;;11.80;99.90;;;;;;5133336;28;20672;-62
2022/10/22 01:27:42;;;;;;;18.75;8.90;;;11.90;99.90;;;;;;5115235;28;20104;-62
2022/10/22 01:30:13;;;;;;;18.58;9.85;;;11.80;99.90;;;;;;5112183;28;20096;-62
2022/10/22 01:32:44;;;;;;;16.90;9.95;;;11.80;99.90;;;;;;5111956;28;20059;-62
2022/10/22 01:35:15;;;;;;;15.10;9.48;;;11.80;99.90;;;;;;5111657;28;20096;-63
2022/10/22 01:37:44;;;;;;;;;;;11.90;99.90;;;;;;5111819;28;20051;-62
2022/10/22 01:40:14;;;;;;;16.95;9.80;;;11.90;99.90;;;;;;5113183;28;20333;-63
2022/10/22 01:42:41;;;;;;;17.02;9.13;;;11.90;99.90;;;;;;5112872;28;20500;-61
2022/10/22 01:45:14;;;;;;;13.27;9.43;;;11.90;99.90;;;;;;5112544;28;20043;-62
2022/10/22 01:47:51;;;;;;;16.73;9.27;;;11.90;99.90;;;;;;5111970;28;20093;-62
2022/10/22 01:50:41;;;;;;;22.23;9.95;;;11.90;99.90;;;;;;5112531;28;20044;-62
2022/10/22 01:53:21;;;;;;;13.45;9.23;;;11.90;99.90;;;;;;5112551;28;20039;-62
2022/10/22 01:56:08;;;;;;;22.17;10.55;;;11.90;99.90;;;;;;5109639;28;20056;-62
2022/10/22 01:58:43;;;;;;;21.25;10.07;;;11.90;99.90;;;;;;5111163;28;20510;-63
2022/10/22 02:01:21;;;;;;;17.38;9.65;;;11.90;99.90;;;;;;5094451;28;20105;-64
2022/10/22 02:03:54;;;;;;;13.82;8.77;;;11.90;99.90;;;;;;5095044;28;20552;-64
2022/10/22 02:06:24;;;;;;;17.90;8.73;;;11.80;99.90;;;;;;5093954;28;20113;-63
2022/10/22 02:08:53;;;;;;;13.43;8.98;;;11.80;99.90;;;;;;5094823;28;20483;-63
2022/10/22 02:11:19;;;;;;;12.98;8.65;;;11.90;99.90;;;;;;5110842;28;20101;-63
2022/10/22 02:13:50;;;;;;;16.48;9.57;;;11.90;99.90;;;;;;5093630;28;20052;-62
2022/10/22 02:16:24;;;;;;;14.85;8.88;;;12.00;99.90;;;;;;5094979;28;20113;-63
2022/10/22 02:18:54;;;;;;;14.40;7.50;;;12.00;99.90;;;;;;5112114;28;20048;-63
2022/10/22 02:21:21;;;;;;;13.07;8.48;;;12.00;99.90;;;;;;5097627;28;20483;-63
2022/10/22 02:23:49;;;;;;;13.60;8.10;;;12.00;99.90;;;;;;5116521;28;20051;-63
2022/10/22 02:26:22;;;;;;;14.15;8.05;;;12.00;99.90;;;;;;5098207;28;20048;-63
2022/10/22 02:28:56;;;;;;;15.02;8.80;;;12.00;99.90;;;;;;5116619;28;20497;-63
2022/10/22 02:31:28;;;;;;;16.23;8.85;;;12.00;99.90;;;;;;5116649;28;20395;-62
2022/10/22 02:33:57;;;;;;;14.65;8.40;;;12.00;99.90;;;;;;5115406;28;20051;-62
2022/10/22 02:36:25;;;;;;;12.80;7.80;;;12.10;99.90;;;;;;5098484;28;20063;-63
2022/10/22 02:38:53;;;;;;;17.02;9.15;;;12.10;99.90;;;;;;5116091;28;20052;-62
2022/10/22 02:41:20;;;;;;;14.80;8.70;;;12.10;99.90;;;;;;5096732;28;20047;-63
2022/10/22 02:43:50;;;;;;;19.33;9.25;;;12.20;99.90;;;;;;5115922;28;20112;-63
2022/10/22 02:46:17;;;;;;;14.48;8.95;;;12.20;99.90;;;;;;5097746;28;20135;-62
2022/10/22 02:48:45;;;;;;;13.45;8.75;;;12.20;99.90;;;;;;5096433;28;20047;-61
2022/10/22 02:51:13;;;;;;;13.40;8.50;;;12.20;99.90;;;;;;5115978;28;20040;-62
2022/10/22 02:53:39;;;;;;;13.32;8.43;;;12.20;99.90;;;;;;5115505;28;20051;-63
2022/10/22 02:56:08;;;;;;;14.05;8.85;;;12.20;99.90;;;;;;5115640;27;20047;-62
2022/10/22 02:58:35;;;;;;;16.95;8.55;;;12.20;99.90;;;;;;5113950;28;20128;-63
2022/10/22 03:01:02;;;;;;;13.25;8.38;;;12.30;99.90;;;;;;5115351;28;20051;-62
2022/10/22 03:03:28;;;;;;;18.08;8.65;;;12.30;99.90;;;;;;5114266;28;20055;-62
2022/10/22 03:05:57;;;;;;;17.73;8.63;;;12.40;99.90;;;;;;5114773;28;20055;-62
2022/10/22 03:08:24;;;;;;;15.60;8.50;;;12.30;99.90;;;;;;5113918;28;20555;-62
2022/10/22 03:10:50;;;;;;;13.80;9.00;;;12.30;99.90;;;;;;5096076;28;20392;-62
2022/10/22 03:13:17;;;;;;;15.15;8.43;;;12.30;99.90;;;;;;5115642;28;20499;-63
2022/10/22 03:15:44;;;;;;;16.58;8.95;;;12.40;99.90;;;;;;5114467;28;20096;-63
2022/10/22 03:18:11;;;;;;;15.55;8.57;;;12.30;99.90;;;;;;5115134;28;20453;-62
2022/10/22 03:20:38;;;;;;;12.13;7.60;;;12.30;99.90;;;;;;5097254;28;20510;-62
2022/10/22 03:23:06;;;;;;;15.38;8.57;;;12.30;99.90;;;;;;5114518;28;20039;-62
2022/10/22 03:25:34;;;;;;;13.38;8.25;;;12.20;99.90;;;;;;5097401;28;20143;-61
2022/10/22 03:28:05;;;;;;;12.38;8.13;;;12.30;99.90;;;;;;5097381;28;20101;-62
2022/10/22 03:30:32;;;;;;;14.50;8.48;;;12.30;99.90;;;;;;5114201;28;20429;-62
2022/10/22 03:32:59;;;;;;;14.88;8.40;;;12.20;99.90;;;;;;5096411;28;20055;-62
2022/10/22 03:35:26;;;;;;;13.18;8.25;;;12.20;99.90;;;;;;5096878;28;20060;-62
2022/10/22 03:37:53;;;;;;;13.73;8.13;;;12.20;99.90;;;;;;5096201;28;20055;-63
2022/10/22 03:40:22;;;;;;;10.73;8.00;;;12.20;99.90;;;;;;5129974;27;20096;-62
2022/10/22 03:42:48;;;;;;;14.80;8.27;;;12.20;99.90;;;;;;5116471;27;20097;-62
2022/10/22 03:45:15;;;;;;;13.48;7.72;;;12.10;99.90;;;;;;5134110;27;20055;-63
2022/10/22 03:47:42;;;;;;;17.52;8.57;;;12.10;99.90;;;;;;5134886;27;20050;-62
2022/10/22 03:50:10;;;;;;;13.40;8.23;;;12.10;99.90;;;;;;5116330;27;20100;-62
2022/10/22 03:52:38;;;;;;;15.07;8.50;;;12.00;99.90;;;;;;5116462;27;20042;-61
2022/10/22 03:55:07;;;;;;;16.63;7.93;;;12.00;99.90;;;;;;5101344;28;20083;-63
2022/10/22 03:57:35;;;;;;;16.95;8.30;;;12.00;99.90;;;;;;5096352;28;20055;-62
2022/10/22 04:00:03;;;;;;;16.95;9.38;;;12.00;99.90;;;;;;5113315;28;20047;-61
2022/10/22 04:02:30;;;;;;;15.68;7.55;;;12.00;99.90;;;;;;5095928;28;20104;-62
2022/10/22 04:04:57;;;;;;;15.85;8.82;;;11.90;99.90;;;;;;5095346;28;20139;-62
2022/10/22 04:07:24;;;;;;;14.68;8.82;;;11.90;99.90;;;;;;5114739;28;20453;-62
2022/10/22 04:09:50;;;;;;;17.38;8.73;;;11.90;99.90;;;;;;5114162;28;20047;-62
2022/10/22 04:12:18;;;;;;;18.02;8.63;;;11.90;99.90;;;;;;5113187;28;20126;-62
2022/10/22 04:14:46;;;;;;;13.00;8.05;;;11.90;99.90;;;;;;5113219;28;20124;-63
2022/10/22 04:17:13;;;;;;;14.82;8.85;;;11.90;99.90;;;;;;5114334;28;20112;-62
2022/10/22 04:19:40;;;;;;;14.70;9.05;;;11.90;99.90;;;;;;5111838;28;20101;-62
2022/10/22 04:22:07;;;;;;;13.77;8.40;;;11.90;99.90;;;;;;5113026;28;20044;-62
2022/10/22 04:24:33;;;;;;;16.35;8.88;;;11.90;99.90;;;;;;5100348;28;20056;-63
2022/10/22 04:27:00;;;;;;;13.77;8.07;;;11.90;99.90;;;;;;5113413;28;20469;-62
2022/10/22 04:29:27;;;;;;;14.43;8.90;;;11.90;99.90;;;;;;5113730;28;20452;-61
2022/10/22 04:31:55;;;;;;;14.90;9.07;;;11.90;99.90;;;;;;5094812;28;20446;-62
2022/10/22 04:34:22;;;;;;;15.98;9.07;;;11.90;99.90;;;;;;5095522;28;20117;-61
2022/10/22 04:36:49;;;;;;;15.15;8.50;;;11.90;99.90;;;;;;5114025;28;20487;-62
2022/10/22 04:39:16;;;;;;;16.90;9.27;;;11.90;99.90;;;;;;5105496;27;20418;-62
2022/10/22 04:41:43;;;;;;;18.52;9.73;;;11.80;99.90;;;;;;5109024;28;20101;-63
2022/10/22 04:44:10;;;;;;;18.52;9.00;;;11.80;99.90;;;;;;5095575;28;20051;-63
2022/10/22 04:46:36;;;;;;;16.25;9.27;;;11.80;99.90;;;;;;5095404;28;20059;-61
2022/10/22 04:49:05;;;;;;;13.60;8.75;;;11.80;99.90;;;;;;5094911;28;20392;-62
2022/10/22 04:51:32;;;;;;;14.90;8.95;;;11.80;99.90;;;;;;5113770;28;20048;-62
2022/10/22 04:53:59;;;;;;;18.45;9.57;;;11.90;99.90;;;;;;5095423;28;20120;-62
2022/10/22 04:56:28;;;;;;;15.45;9.15;;;11.80;99.90;;;;;;5112844;28;20043;-62
2022/10/22 04:58:56;;;;;;;18.42;8.68;;;11.80;99.90;;;;;;5123110;27;20051;-62
2022/10/22 05:01:25;;;;;;;15.13;10.10;;;11.90;99.90;;;;;;5131690;27;20047;-63
2022/10/22 05:03:54;;;;;;;16.42;8.68;;;11.80;99.90;;;;;;5114849;27;20062;-62
2022/10/22 05:06:23;;;;;;;16.85;10.00;;;11.80;99.90;;;;;;5134316;27;20099;-62
2022/10/22 05:08:53;;;;;;;17.90;8.90;;;11.80;99.90;;;;;;5126014;27;20048;-62
2022/10/22 05:11:22;;;;;;;13.10;8.73;;;11.80;99.90;;;;;;5111842;28;20442;-63
2022/10/22 05:13:49;;;;;;;16.73;9.45;;;11.90;99.90;;;;;;5111844;28;20096;-62
2022/10/22 05:16:16;;;;;;;14.57;8.60;;;11.80;99.90;;;;;;5111561;28;20104;-63
2022/10/22 05:18:44;;;;;;;15.25;10.32;;;11.80;99.90;;;;;;5113137;28;20104;-63
2022/10/22 05:21:13;;;;;;;17.70;9.65;;;11.80;99.90;;;;;;5111726;28;20449;-62
2022/10/22 05:23:42;;;;;;;14.48;9.00;;;11.80;99.90;;;;;;5112476;28;20096;-63
2022/10/22 05:26:10;;;;;;;18.15;9.35;;;11.80;99.90;;;;;;5113373;28;20051;-62
2022/10/22 05:28:37;;;;;;;17.45;9.23;;;11.80;99.90;;;;;;5112073;28;20438;-63
2022/10/22 05:31:05;;;;;;;15.88;9.52;;;11.80;99.90;;;;;;5112450;28;20048;-63
2022/10/22 05:33:33;;;;;;;15.68;9.38;;;11.80;99.90;;;;;;5113125;28;20105;-63
2022/10/22 05:36:01;;;;;;;17.75;10.13;;;11.80;99.90;;;;;;5111858;28;20055;-63
2022/10/22 05:38:27;;;;;;;15.13;8.65;;;11.80;99.90;;;;;;5114565;28;20069;-63
2022/10/22 05:41:05;;;;;;;16.10;9.57;;;11.80;99.90;;;;;;5113862;28;20047;-62
2022/10/22 05:43:32;;;;;;;18.08;9.07;;;11.80;99.90;;;;;;5131595;28;20108;-63
2022/10/22 05:46:02;;;;;;;17.63;9.15;;;11.80;99.90;;;;;;5100597;28;20048;-63
2022/10/22 05:48:29;;;;;;;16.48;9.75;;;11.80;99.90;;;;;;5093417;28;20074;-62
2022/10/22 05:50:56;;;;;;;15.98;9.48;;;11.80;99.90;;;;;;5091742;28;20223;-62
2022/10/22 05:53:23;;;;;;;18.85;10.07;;;11.80;99.90;;;;;;5093053;28;20097;-62
2022/10/22 05:55:50;;;;;;;17.38;9.80;;;11.90;99.90;;;;;;5095358;28;20105;-62
2022/10/22 05:58:18;;;;;;;16.27;10.02;;;11.90;99.90;;;;;;5096358;28;20051;-62
2022/10/22 06:00:45;;;;;;;18.55;10.02;;;11.90;99.90;;;;;;5114621;28;20047;-62
2022/10/22 06:03:12;;;;;;;17.40;10.43;;;11.90;99.90;;;;;;5116892;27;20104;-62
2022/10/22 06:05:39;;;;;;;17.85;10.80;;;12.00;99.90;;;;;;5118279;27;20127;-62
2022/10/22 06:08:06;;;;;;;12.95;10.05;;;12.00;99.90;;;;;;5114414;28;20123;-62
2022/10/22 06:10:33;;;;;;;17.90;9.68;;;12.00;99.90;;;;;;5113720;27;20075;-62
2022/10/22 06:13:02;;;;;;;17.08;9.27;;;12.00;99.90;;;;;;5113565;28;20495;-62
2022/10/22 06:15:30;;;;;;;16.40;9.77;;;12.00;99.90;;;;;;5115508;28;20443;-61
2022/10/22 06:17:57;;;;;;;12.85;9.77;;;12.00;99.90;;;;;;5096089;28;20055;-62
2022/10/22 06:20:23;;;;;;;19.73;10.20;;;12.00;99.90;;;;;;5113970;27;20048;-62
2022/10/22 06:22:50;;;;;;;18.88;10.02;;;12.10;99.90;;;;;;5118546;27;20054;-61
2022/10/22 06:25:17;;;;;;;19.60;9.80;;;12.00;99.90;;;;;;5114048;27;20047;-62
2022/10/22 06:27:48;;;;;;;17.40;10.13;;;12.10;99.90;;;;;;5097092;28;20100;-61
2022/10/22 06:30:15;;;;;;;18.48;10.10;;;12.10;99.90;;;;;;5097115;28;20047;-63
2022/10/22 06:32:43;;;;;;;16.80;9.52;;;12.10;99.90;;;;;;5098125;28;20040;-63
2022/10/22 06:35:10;;;;;;;14.55;9.27;;;12.10;99.90;;;;;;5114585;28;20073;-62
2022/10/22 06:37:37;;;;;;;18.10;10.32;;;12.10;99.90;;;;;;5114013;28;20051;-62
2022/10/22 06:40:04;;;;;;;20.13;9.90;;;12.10;99.90;;;;;;5110491;27;20137;-62
2022/10/22 06:42:31;;;;;;;23.13;9.10;;;12.20;99.90;;;;;;5100070;28;20055;-62
2022/10/22 06:44:58;;;;;;;15.43;9.45;;;12.20;99.90;;;;;;5095789;27;20043;-62
2022/10/22 06:47:25;;;;;;;15.23;9.13;;;12.20;99.90;;;;;;5094676;28;20079;-62
2022/10/22 06:49:53;;;;;;;15.07;9.48;;;12.20;99.90;;;;;;5095975;28;20109;-61
2022/10/22 06:52:20;;;;;;;15.07;8.63;;;12.40;99.90;;;;;;5102512;28;20044;-64
2022/10/22 06:54:46;;;;;;;17.65;9.80;;;12.40;99.90;;;;;;5115485;27;20505;-63
2022/10/22 06:57:13;;;;;;;12.05;7.90;;;12.40;99.90;;;;;;5095267;28;20056;-63
2022/10/22 06:59:40;;;;;;;15.52;9.57;;;12.40;99.90;;;;;;5103889;27;20090;-62
2022/10/22 07:02:08;;;;;;;17.30;8.88;;;12.50;99.90;;;;;;5095472;28;20047;-63
2022/10/22 07:04:36;;;;;;;20.38;9.25;;;12.60;99.90;;;;;;5113647;28;20436;-63
2022/10/22 07:07:04;;;;;;;15.40;8.38;;;12.70;99.90;;;;;;5112036;28;20548;-62
2022/10/22 07:09:30;;;;;;;15.88;8.50;;;12.70;99.90;;;;;;5094787;28;20140;-63
2022/10/22 07:11:57;;;;;;;15.55;9.02;;;12.90;99.90;;;;;;5113395;27;20043;-62
2022/10/22 07:14:24;;;;;;;16.10;8.48;;;12.90;99.90;;;;;;5107754;27;20047;-63
2022/10/22 07:16:51;;;;;;;14.95;7.47;;;13.00;99.90;;;;;;5112263;28;20473;-62
2022/10/22 07:19:18;;;;;;;15.82;8.35;;;13.00;99.90;;;;;;5114178;27;20044;-62
2022/10/22 07:21:45;;;;;;;13.93;7.80;;;13.10;99.90;;;;;;5117206;27;20051;-61
2022/10/22 07:24:13;;;;;;;10.80;6.85;;;13.20;99.90;;;;;;5113526;27;20526;-62
2022/10/22 07:26:40;;;;;;;12.88;7.35;;;13.20;99.90;;;;;;5094897;28;20467;-62
2022/10/22 07:29:08;;;;;;;16.98;7.18;;;13.20;99.90;;;;;;5094793;28;20499;-62
2022/10/22 07:31:35;;;;;;;13.13;6.72;;;13.30;99.90;;;;;;5094738;28;20403;-62
2022/10/22 07:34:02;;;;;;;12.73;7.57;;;13.30;99.90;;;;;;5106549;27;20067;-62
2022/10/22 07:36:29;;;;;;;12.18;7.00;;;13.40;99.90;;;;;;5112133;28;20112;-61
2022/10/22 07:38:57;;;;;;;10.25;6.25;;;13.50;99.90;;;;;;5100446;27;20047;-62
2022/10/22 07:41:28;;;;;;;11.52;6.75;;;13.50;99.90;;;;;;5112504;28;20078;-62
2022/10/22 07:43:55;;;;;;;12.35;6.38;;;13.50;99.90;;;;;;5112054;28;20491;-63
2022/10/22 07:46:22;;;;;;;13.45;6.30;;;13.60;99.90;;;;;;5117143;27;20055;-63
2022/10/22 07:48:49;;;;;;;10.98;6.47;;;13.60;99.90;;;;;;5113386;28;20047;-62
2022/10/22 07:51:16;;;;;;;12.38;6.38;;;13.60;99.90;;;;;;5093855;28;20043;-63
2022/10/22 07:53:43;;;;;;;9.93;5.88;;;13.70;99.90;;;;;;5112579;28;20097;-62
2022/10/22 07:56:10;;;;;;;11.70;6.07;;;13.70;99.90;;;;;;5114710;27;20440;-63
2022/10/22 07:58:38;;;;;;;13.55;6.97;;;13.70;99.90;;;;;;5112729;27;20097;-62
2022/10/22 08:01:05;;;;;;;10.27;5.70;;;13.70;99.90;;;;;;5112503;28;20048;-62
2022/10/22 08:03:33;;;;;;;10.90;6.25;;;13.80;99.90;;;;;;5112520;28;20078;-62
2022/10/22 08:06:00;;;;;;;16.45;5.65;;;13.80;99.90;;;;;;5111980;28;20050;-62
2022/10/22 08:08:28;;;;;;;13.90;5.63;;;13.90;99.90;;;;;;5112533;28;20112;-62
2022/10/22 08:10:58;;;;;;;10.48;6.10;;;13.90;99.90;;;;;;5111580;28;20136;-63
2022/10/22 08:13:26;;;;;;;11.80;5.83;;;13.90;99.90;;;;;;5092856;28;20402;-63
2022/10/22 08:15:54;;;;;;;9.90;6.13;;;13.80;99.90;;;;;;5100353;28;20394;-63
2022/10/22 08:18:21;;;;;;;12.35;5.63;;;13.90;99.90;;;;;;5117000;27;20048;-62
2022/10/22 08:20:48;;;;;;;12.98;5.90;;;13.90;99.90;;;;;;5115030;27;20044;-61
2022/10/22 08:23:15;;;;;;;12.38;5.47;;;13.90;99.90;;;;;;5113992;27;20047;-62
2022/10/22 08:25:42;;;;;;;16.85;5.88;;;13.90;99.90;;;;;;5124534;27;20043;-61
2022/10/22 08:28:08;;;;;;;12.18;5.70;;;14.10;99.90;;;;;;5112838;28;20052;-61
2022/10/22 08:30:37;;;;;;;13.80;5.95;;;14.20;99.90;;;;;;5112657;28;20104;-62
2022/10/22 08:33:06;;;;;;;8.52;4.82;;;14.60;99.90;;;;;;5113212;28;20079;-62
2022/10/22 08:35:32;;;;;;;9.75;4.40;;;15.30;99.90;;;;;;5113084;28;20139;-63
2022/10/22 08:37:59;;;;;;;14.20;5.18;;;16.30;99.90;;;;;;5110066;28;20111;-65
2022/10/22 08:40:33;;;;;;;7.93;4.80;;;17.00;99.90;;;;;;5095140;28;20432;-62
2022/10/22 08:43:20;;;;;;;13.73;4.70;;;17.80;99.90;;;;;;5113656;28;20043;-62
2022/10/22 08:45:55;;;;;;;7.55;3.42;;;18.70;99.90;;;;;;5112745;28;20514;-62
2022/10/22 08:48:39;;;;;;;8.40;3.53;;;19.50;99.90;;;;;;5107978;28;20548;-61
2022/10/22 08:51:10;;;;;;;11.48;3.80;;;20.20;99.90;;;;;;5095750;28;20124;-63
2022/10/22 08:53:41;;;;;;;7.57;3.28;;;20.80;99.90;;;;;;5094681;28;20043;-62
2022/10/22 08:56:08;;;;;;;8.35;3.53;;;21.20;99.90;;;;;;5113605;28;20112;-62
2022/10/22 08:58:40;;;;;;;9.73;3.45;;;21.10;99.90;;;;;;5113413;28;20048;-62
2022/10/22 09:01:13;;;;;;;10.02;3.17;;;21.20;99.90;;;;;;5113010;28;20047;-62
2022/10/22 09:03:49;;;;;;;7.18;3.10;;;21.40;99.90;;;;;;5106028;28;20044;-62
2022/10/22 09:06:20;;;;;;;7.95;3.20;;;21.70;99.90;;;;;;5113396;28;20043;-62
2022/10/22 09:08:48;;;;;;;9.52;4.10;;;22.60;99.90;;;;;;5115282;28;20053;-62
2022/10/22 09:11:24;;;;;;;7.45;3.17;;;23.30;99.90;;;;;;5115677;27;20051;-63
2022/10/22 09:13:53;;;;;;;6.95;3.05;;;23.80;99.90;;;;;;5115429;27;20055;-63
2022/10/22 09:16:26;;;;;;;8.32;3.60;;;23.50;99.90;;;;;;5133374;27;20130;-63
2022/10/22 09:19:09;;;;;;;7.72;3.15;;;23.40;99.90;;;;;;5115712;28;20051;-62
2022/10/22 09:21:42;;;;;;;9.30;2.95;;;23.40;99.90;;;;;;5098723;28;20101;-63
2022/10/22 09:24:12;;;;;;;8.73;3.63;;;23.30;99.90;;;;;;5113618;28;20445;-62
2022/10/22 09:26:41;;;;;;;8.38;3.72;;;23.30;99.90;;;;;;5112164;28;20048;-62
2022/10/22 09:29:17;;;;;;;10.38;3.00;;;23.10;99.90;;;;;;5112695;28;20475;-63
2022/10/22 09:31:43;;;;;;;11.43;3.00;;;23.30;99.90;;;;;;5117536;28;20075;-63
2022/10/22 09:34:14;;;;;;;9.85;3.55;;;23.10;99.90;;;;;;5117206;28;20384;-62
2022/10/22 09:36:41;;;;;;;9.15;2.70;;;23.40;99.90;;;;;;5117159;28;20052;-63
2022/10/22 09:39:22;;;;;;;6.05;2.75;;;23.10;99.90;;;;;;5100117;28;20052;-63
2022/10/22 09:41:49;;;;;;;8.07;3.10;;;22.00;99.90;;;;;;5129356;27;20066;-63
2022/10/22 09:44:18;;;;;;;6.40;3.22;;;21.00;99.90;;;;;;5118367;27;20047;-62
2022/10/22 09:46:45;;;;;;;8.02;3.25;;;20.10;99.90;;;;;;5097748;28;20059;-63
2022/10/22 09:49:16;;;;;;;6.10;2.90;;;19.50;99.90;;;;;;5113841;27;20109;-62
2022/10/22 09:51:50;;;;;;;6.85;3.30;;;19.20;99.90;;;;;;5108483;27;20051;-62
2022/10/22 09:54:20;;;;;;;8.15;3.53;;;19.00;99.90;;;;;;5136503;27;20118;-63
2022/10/22 09:56:57;;;;;;;9.40;3.92;;;18.60;99.90;;;;;;5096802;27;20040;-63
2022/10/22 09:59:27;;;;;;;14.43;3.63;;;18.50;99.90;;;;;;5098770;27;20056;-62
2022/10/22 10:02:06;;;;;;;8.82;3.83;;;18.40;99.90;;;;;;5105389;28;20051;-63
2022/10/22 10:04:41;;;;;;;8.95;3.30;;;18.50;99.90;;;;;;5115445;28;20043;-62
2022/10/22 10:07:16;;;;;;;9.23;3.22;;;18.30;99.90;;;;;;5117781;27;20494;-62
2022/10/22 10:09:43;;;;;;;9.10;4.03;;;18.30;99.90;;;;;;5112674;27;20051;-62
2022/10/22 10:12:24;;;;;;;8.30;3.47;;;18.10;99.90;;;;;;5130219;27;20043;-62
2022/10/22 10:15:00;;;;;;;10.50;3.67;;;17.90;99.90;;;;;;5115556;28;20120;-63
2022/10/22 10:17:33;;;;;;;12.52;3.35;;;17.90;99.90;;;;;;5115445;27;20124;-63
2022/10/22 10:20:16;;;;;;;9.38;3.88;;;17.80;99.90;;;;;;5100643;27;20060;-62
2022/10/22 10:22:55;;;;;;;10.02;4.32;;;17.70;99.90;;;;;;5117087;27;20509;-62
2022/10/22 10:25:35;;;;;;;11.80;4.60;;;17.50;99.90;;;;;;5103236;27;20099;-63
2022/10/22 10:28:15;;;;;;;10.15;3.83;;;17.40;99.90;;;;;;5123924;27;20491;-62
2022/10/22 10:30:51;;;;;;;9.82;4.28;;;17.50;99.90;;;;;;5110242;28;20121;-62
2022/10/22 10:33:27;;;;;;;8.82;4.15;;;18.10;99.90;;;;;;5114229;28;20047;-61
2022/10/22 10:36:01;;;;;;;9.23;3.65;;;18.20;99.90;;;;;;5098651;27;20047;-63
2022/10/22 10:38:39;;;;;;;12.70;3.92;;;18.10;99.90;;;;;;5098451;27;20059;-63
2022/10/22 10:41:18;;;;;;;10.45;4.25;;;18.00;99.90;;;;;;5115283;27;20093;-63
2022/10/22 10:44:05;;;;;;;8.98;4.30;;;17.90;99.90;;;;;;5105995;28;20120;-62
2022/10/22 10:46:40;;;;;;;10.38;4.00;;;17.80;99.90;;;;;;5113972;28;20449;-62
2022/10/22 10:49:10;;;;;;;8.85;4.20;;;17.60;99.90;;;;;;5096391;28;20047;-63
2022/10/22 10:51:53;;;;;;;11.32;4.65;;;17.50;99.90;;;;;;5109743;28;20048;-62
2022/10/22 10:54:35;;;;;;;8.80;4.13;;;17.30;99.90;;;;;;5117943;27;20487;-62
2022/10/22 10:57:09;;;;;;;8.18;4.18;;;17.30;99.90;;;;;;5098890;27;20079;-63
2022/10/22 10:59:48;;;;;;;9.02;4.53;;;17.10;99.90;;;;;;5097111;28;20059;-63
2022/10/22 11:02:42;;;;;;;11.53;5.17;;;17.10;99.90;;;;;;5095628;28;20517;-63
2022/10/22 11:05:27;;;;;;;8.43;3.97;;;16.90;99.90;;;;;;5096886;28;20071;-62
2022/10/22 11:08:00;;;;;;;11.77;4.05;;;16.80;99.90;;;;;;5096057;28;20160;-62
2022/10/22 11:10:32;;;;;;;11.15;3.80;;;16.70;99.90;;;;;;5096129;27;20076;-62
2022/10/22 11:13:11;;;;;;;5.38;3.58;;;16.60;99.90;;;;;;5096942;27;20055;-62
2022/10/22 11:15:40;;;;;;;9.20;4.40;;;16.70;99.90;;;;;;5097152;28;20111;-62
2022/10/22 11:18:16;;;;;;;6.05;3.42;;;16.70;99.90;;;;;;5096199;28;20086;-62
2022/10/22 11:20:50;;;;;;;7.03;3.80;;;16.70;99.90;;;;;;5116560;27;20376;-63
2022/10/22 11:23:26;;;;;;;9.38;3.45;;;16.70;99.90;;;;;;5113334;27;20491;-61
2022/10/22 11:25:53;;;;;;;8.15;4.03;;;16.70;99.90;;;;;;5095535;28;20132;-62
2022/10/22 11:28:24;;;;;;;7.35;3.60;;;17.50;99.90;;;;;;5117713;27;20068;-63
2022/10/22 11:31:00;;;;;;;7.53;3.25;;;18.60;99.90;;;;;;5110235;28;20105;-63
2022/10/22 11:33:33;;;;;;;6.75;3.63;;;20.00;99.90;;;;;;5124873;27;20051;-63
2022/10/22 11:36:03;;;;;;;5.20;3.03;;;21.30;99.90;;;;;;5112945;28;20058;-63
2022/10/22 11:38:34;;;;;;;8.90;3.45;;;22.00;99.90;;;;;;5113007;28;20059;-62
2022/10/22 11:41:05;;;;;;;7.82;3.80;;;21.70;99.90;;;;;;5113286;28;20082;-62
2022/10/22 11:43:35;;;;;;;6.93;3.47;;;20.90;99.90;;;;;;5113397;28;20459;-63
2022/10/22 11:46:25;;;;;;;10.52;4.18;;;20.20;99.90;;;;;;5112621;28;20483;-62
2022/10/22 11:49:03;;;;;;;13.57;4.18;;;19.60;99.90;;;;;;5127167;27;20047;-63
2022/10/22 11:51:34;;;;;;;14.68;4.63;;;19.00;99.90;;;;;;5113198;28;20043;-62
2022/10/22 11:54:26;;;;;;;19.20;5.38;;;18.40;99.90;;;;;;5107749;28;20040;-61
2022/10/22 11:57:12;;;;;;;17.73;6.15;;;18.00;99.90;;;;;;5133599;27;20108;-62
2022/10/22 11:59:44;;;;;;;12.10;4.85;;;17.70;99.90;;;;;;5106253;27;20098;-63
2022/10/22 12:02:25;;;;;;;10.07;4.38;;;17.60;99.90;;;;;;5115428;27;20069;-62
2022/10/22 12:04:51;;;;;;;8.32;4.55;;;17.50;99.90;;;;;;5122236;27;20044;-61
2022/10/22 12:07:34;;;;;;;7.65;4.72;;;17.20;99.90;;;;;;5095084;28;20104;-62
2022/10/22 12:10:05;;;;;;;11.88;5.55;;;17.00;99.90;;;;;;5094694;28;20096;-62
2022/10/22 12:12:38;;;;;;;8.88;4.82;;;17.10;99.90;;;;;;5113239;28;20090;-62
2022/10/22 12:15:23;;;;;;;9.68;4.65;;;17.10;99.90;;;;;;5094315;28;20074;-62
2022/10/22 12:17:50;;;;;;;8.82;4.85;;;17.40;99.90;;;;;;5113244;28;20047;-62
2022/10/22 12:20:17;;;;;;;8.98;5.00;;;17.50;99.90;;;;;;5094983;28;20052;-62
2022/10/22 12:22:44;;;;;;;8.00;5.13;;;17.40;99.90;;;;;;5113290;28;20043;-62
2022/10/22 12:25:21;;;;;;;10.63;5.07;;;17.40;99.90;;;;;;5114405;27;20043;-61
2022/10/22 12:27:52;;;;;;;10.98;4.47;;;17.80;99.90;;;;;;5095085;28;20058;-63
2022/10/22 12:30:22;;;;;;;10.57;4.70;;;18.00;99.90;;;;;;5097322;28;20881;-63
2022/10/22 12:32:53;;;;;;;8.38;4.20;;;18.00;99.90;;;;;;5131195;27;20055;-63
2022/10/22 12:35:22;;;;;;;10.85;5.20;;;17.90;99.90;;;;;;5114839;27;20129;-63
2022/10/22 12:37:50;;;;;;;9.15;4.68;;;17.70;99.90;;;;;;5101485;28;20105;-62
2022/10/22 12:40:20;;;;;;;6.97;4.60;;;17.50;99.90;;;;;;5096779;27;20055;-63
2022/10/22 12:42:49;;;;;;;8.30;4.55;;;17.30;99.90;;;;;;5096619;28;20059;-63
2022/10/22 12:45:16;;;;;;;10.55;5.70;;;17.20;99.90;;;;;;5103288;28;20524;-63
2022/10/22 12:47:46;;;;;;;8.40;4.50;;;17.10;99.90;;;;;;5096547;27;20047;-63
2022/10/22 12:50:18;;;;;;;8.90;4.40;;;16.90;99.90;;;;;;5098273;28;20047;-63
2022/10/22 12:52:46;;;;;;;8.70;4.95;;;16.70;99.90;;;;;;5099620;28;20043;-62
2022/10/22 12:55:16;;;;;;;12.02;5.57;;;16.60;99.90;;;;;;5118146;27;20071;-62